sensor_id;sensor_type;location;lat;lon;timestamp;temperature;humidity
31129;DHT22;17777;48.770;8.944;2023-07-13T00:00:35;26.80;38.80
31129;DHT22;17777;48.770;8.944;2023-07-13T00:03:02;26.80;38.80
31129;DHT22;17777;48.770;8.944;2023-07-13T00:05:28;26.80;38.80
31129;DHT22;17777;48.770;8.944;2023-07-13T00:07:54;26.80;38.80
31129;DHT22;17777;48.770;8.944;2023-07-13T00:10:21;26.80;38.80
31129;DHT22;17777;48.770;8.944;2023-07-13T00:12:47;26.70;38.80
31129;DHT22;17777;48.770;8.944;2023-07-13T00:15:19;26.70;38.70
31129;DHT22;17777;48.770;8.944;2023-07-13T00:17:55;26.70;38.70
31129;DHT22;17777;48.770;8.944;2023-07-13T00:20:22;26.60;38.60
31129;DHT22;17777;48.770;8.944;2023-07-13T00:22:51;26.70;38.70
31129;DHT22;17777;48.770;8.944;2023-07-13T00:25:20;26.60;38.70
31129;DHT22;17777;48.770;8.944;2023-07-13T00:27:47;26.60;38.60
31129;DHT22;17777;48.770;8.944;2023-07-13T00:30:15;26.60;38.60
31129;DHT22;17777;48.770;8.944;2023-07-13T00:32:41;26.50;38.50
31129;DHT22;17777;48.770;8.944;2023-07-13T00:35:07;26.50;38.40
31129;DHT22;17777;48.770;8.944;2023-07-13T00:37:33;26.40;38.30
31129;DHT22;17777;48.770;8.944;2023-07-13T00:40:02;26.40;38.30
31129;DHT22;17777;48.770;8.944;2023-07-13T00:42:29;26.40;38.20
31129;DHT22;17777;48.770;8.944;2023-07-13T00:47:53;26.30;38.00
31129;DHT22;17777;48.770;8.944;2023-07-13T00:50:21;26.30;38.00
31129;DHT22;17777;48.770;8.944;2023-07-13T00:52:50;26.30;38.00
31129;DHT22;17777;48.770;8.944;2023-07-13T00:55:21;26.20;37.90
31129;DHT22;17777;48.770;8.944;2023-07-13T00:57:47;26.20;37.90
31129;DHT22;17777;48.770;8.944;2023-07-13T01:00:14;26.20;38.00
31129;DHT22;17777;48.770;8.944;2023-07-13T01:02:42;26.20;38.00
31129;DHT22;17777;48.770;8.944;2023-07-13T01:05:14;26.20;38.00
31129;DHT22;17777;48.770;8.944;2023-07-13T01:07:45;26.20;38.00
31129;DHT22;17777;48.770;8.944;2023-07-13T01:10:12;26.20;38.00
31129;DHT22;17777;48.770;8.944;2023-07-13T01:12:39;26.10;37.90
31129;DHT22;17777;48.770;8.944;2023-07-13T01:15:05;26.10;37.90
31129;DHT22;17777;48.770;8.944;2023-07-13T01:17:35;26.10;37.90
31129;DHT22;17777;48.770;8.944;2023-07-13T01:20:01;26.10;37.90
31129;DHT22;17777;48.770;8.944;2023-07-13T01:22:26;26.10;37.90
31129;DHT22;17777;48.770;8.944;2023-07-13T01:24:53;26.10;37.90
31129;DHT22;17777;48.770;8.944;2023-07-13T01:27:25;26.00;37.90
31129;DHT22;17777;48.770;8.944;2023-07-13T01:29:52;26.00;37.90
31129;DHT22;17777;48.770;8.944;2023-07-13T01:32:21;26.00;37.90
31129;DHT22;17777;48.770;8.944;2023-07-13T01:34:51;25.90;37.80
31129;DHT22;17777;48.770;8.944;2023-07-13T01:37:20;25.90;37.80
31129;DHT22;17777;48.770;8.944;2023-07-13T01:39:46;25.90;37.80
31129;DHT22;17777;48.770;8.944;2023-07-13T01:42:13;25.90;37.90
31129;DHT22;17777;48.770;8.944;2023-07-13T01:44:39;25.80;37.90
31129;DHT22;17777;48.770;8.944;2023-07-13T01:47:07;25.80;37.90
31129;DHT22;17777;48.770;8.944;2023-07-13T01:49:32;25.80;38.00
31129;DHT22;17777;48.770;8.944;2023-07-13T01:51:58;25.80;38.20
31129;DHT22;17777;48.770;8.944;2023-07-13T01:54:24;25.70;38.20
31129;DHT22;17777;48.770;8.944;2023-07-13T01:56:50;25.60;38.20
31129;DHT22;17777;48.770;8.944;2023-07-13T01:59:16;25.60;38.30
31129;DHT22;17777;48.770;8.944;2023-07-13T02:01:41;25.50;38.40
31129;DHT22;17777;48.770;8.944;2023-07-13T02:04:07;25.40;38.50
31129;DHT22;17777;48.770;8.944;2023-07-13T02:06:33;25.20;38.60
31129;DHT22;17777;48.770;8.944;2023-07-13T02:08:59;25.20;38.80
31129;DHT22;17777;48.770;8.944;2023-07-13T02:11:25;25.10;38.80
31129;DHT22;17777;48.770;8.944;2023-07-13T02:14:01;25.00;38.90
31129;DHT22;17777;48.770;8.944;2023-07-13T02:16:28;24.90;39.20
31129;DHT22;17777;48.770;8.944;2023-07-13T02:18:54;24.80;39.30
31129;DHT22;17777;48.770;8.944;2023-07-13T02:21:22;24.80;39.50
31129;DHT22;17777;48.770;8.944;2023-07-13T02:23:51;24.70;39.60
31129;DHT22;17777;48.770;8.944;2023-07-13T02:26:17;24.70;39.70
31129;DHT22;17777;48.770;8.944;2023-07-13T02:28:43;24.60;39.80
31129;DHT22;17777;48.770;8.944;2023-07-13T02:31:12;24.60;39.90
31129;DHT22;17777;48.770;8.944;2023-07-13T02:33:39;24.60;39.90
31129;DHT22;17777;48.770;8.944;2023-07-13T02:36:06;24.60;39.90
31129;DHT22;17777;48.770;8.944;2023-07-13T02:38:33;24.60;39.90
31129;DHT22;17777;48.770;8.944;2023-07-13T02:41:05;24.60;40.00
31129;DHT22;17777;48.770;8.944;2023-07-13T02:43:32;24.60;40.00
31129;DHT22;17777;48.770;8.944;2023-07-13T02:45:59;24.60;40.00
31129;DHT22;17777;48.770;8.944;2023-07-13T02:48:36;24.60;40.10
31129;DHT22;17777;48.770;8.944;2023-07-13T02:51:03;24.60;40.10
31129;DHT22;17777;48.770;8.944;2023-07-13T02:53:30;24.60;40.10
31129;DHT22;17777;48.770;8.944;2023-07-13T02:55:56;24.60;40.20
31129;DHT22;17777;48.770;8.944;2023-07-13T02:58:22;24.50;40.20
31129;DHT22;17777;48.770;8.944;2023-07-13T03:00:48;24.60;40.30
31129;DHT22;17777;48.770;8.944;2023-07-13T03:03:17;24.60;40.40
31129;DHT22;17777;48.770;8.944;2023-07-13T03:05:44;24.50;40.30
31129;DHT22;17777;48.770;8.944;2023-07-13T03:08:16;24.50;40.30
31129;DHT22;17777;48.770;8.944;2023-07-13T03:10:44;24.50;40.20
31129;DHT22;17777;48.770;8.944;2023-07-13T03:13:11;24.40;40.20
31129;DHT22;17777;48.770;8.944;2023-07-13T03:15:37;24.40;40.30
31129;DHT22;17777;48.770;8.944;2023-07-13T03:18:03;24.30;40.30
31129;DHT22;17777;48.770;8.944;2023-07-13T03:20:33;24.20;40.30
31129;DHT22;17777;48.770;8.944;2023-07-13T03:23:01;24.20;40.70
31129;DHT22;17777;48.770;8.944;2023-07-13T03:25:27;24.10;40.70
31129;DHT22;17777;48.770;8.944;2023-07-13T03:27:53;24.00;40.80
31129;DHT22;17777;48.770;8.944;2023-07-13T03:30:20;23.90;40.90
31129;DHT22;17777;48.770;8.944;2023-07-13T03:32:46;23.90;41.00
31129;DHT22;17777;48.770;8.944;2023-07-13T03:35:12;23.80;41.00
31129;DHT22;17777;48.770;8.944;2023-07-13T03:37:38;23.80;41.10
31129;DHT22;17777;48.770;8.944;2023-07-13T03:40:10;23.80;41.20
31129;DHT22;17777;48.770;8.944;2023-07-13T03:42:36;23.70;41.30
31129;DHT22;17777;48.770;8.944;2023-07-13T03:45:02;23.60;41.40
31129;DHT22;17777;48.770;8.944;2023-07-13T03:47:31;23.60;41.50
31129;DHT22;17777;48.770;8.944;2023-07-13T03:49:57;23.50;41.50
31129;DHT22;17777;48.770;8.944;2023-07-13T03:52:23;23.50;41.60
31129;DHT22;17777;48.770;8.944;2023-07-13T03:54:49;23.40;41.60
31129;DHT22;17777;48.770;8.944;2023-07-13T03:57:16;23.40;41.80
31129;DHT22;17777;48.770;8.944;2023-07-13T03:59:41;23.40;41.90
31129;DHT22;17777;48.770;8.944;2023-07-13T04:02:08;23.30;42.60
31129;DHT22;17777;48.770;8.944;2023-07-13T04:04:34;23.30;42.10
31129;DHT22;17777;48.770;8.944;2023-07-13T04:06:59;23.30;42.20
31129;DHT22;17777;48.770;8.944;2023-07-13T04:09:25;23.30;42.40
31129;DHT22;17777;48.770;8.944;2023-07-13T04:11:51;23.30;42.40
31129;DHT22;17777;48.770;8.944;2023-07-13T04:14:17;23.30;42.50
31129;DHT22;17777;48.770;8.944;2023-07-13T04:16:43;23.30;42.50
31129;DHT22;17777;48.770;8.944;2023-07-13T04:19:09;23.30;42.50
31129;DHT22;17777;48.770;8.944;2023-07-13T04:21:36;23.30;42.60
31129;DHT22;17777;48.770;8.944;2023-07-13T04:24:02;23.40;42.60
31129;DHT22;17777;48.770;8.944;2023-07-13T04:26:29;23.30;42.60
31129;DHT22;17777;48.770;8.944;2023-07-13T04:28:55;23.40;42.80
31129;DHT22;17777;48.770;8.944;2023-07-13T04:31:21;23.40;42.90
31129;DHT22;17777;48.770;8.944;2023-07-13T04:33:48;23.40;42.90
31129;DHT22;17777;48.770;8.944;2023-07-13T04:36:15;23.40;42.90
31129;DHT22;17777;48.770;8.944;2023-07-13T04:38:42;23.40;42.90
31129;DHT22;17777;48.770;8.944;2023-07-13T04:41:08;23.40;42.90
31129;DHT22;17777;48.770;8.944;2023-07-13T04:43:35;23.30;42.90
31129;DHT22;17777;48.770;8.944;2023-07-13T04:46:08;23.30;42.90
31129;DHT22;17777;48.770;8.944;2023-07-13T04:48:36;23.30;43.30
31129;DHT22;17777;48.770;8.944;2023-07-13T04:51:02;23.30;43.00
31129;DHT22;17777;48.770;8.944;2023-07-13T04:53:30;23.30;43.10
31129;DHT22;17777;48.770;8.944;2023-07-13T04:55:57;23.30;43.20
31129;DHT22;17777;48.770;8.944;2023-07-13T04:58:24;23.30;43.30
31129;DHT22;17777;48.770;8.944;2023-07-13T05:00:50;23.30;43.30
31129;DHT22;17777;48.770;8.944;2023-07-13T05:03:16;23.30;43.30
31129;DHT22;17777;48.770;8.944;2023-07-13T05:05:42;23.30;43.40
31129;DHT22;17777;48.770;8.944;2023-07-13T05:08:07;23.20;43.40
31129;DHT22;17777;48.770;8.944;2023-07-13T05:10:34;23.20;43.50
31129;DHT22;17777;48.770;8.944;2023-07-13T05:13:01;23.20;44.20
31129;DHT22;17777;48.770;8.944;2023-07-13T05:15:27;23.20;43.60
31129;DHT22;17777;48.770;8.944;2023-07-13T05:17:52;23.20;43.70
31129;DHT22;17777;48.770;8.944;2023-07-13T05:20:19;23.20;43.80
31129;DHT22;17777;48.770;8.944;2023-07-13T05:22:44;23.30;43.90
31129;DHT22;17777;48.770;8.944;2023-07-13T05:25:12;23.30;44.00
31129;DHT22;17777;48.770;8.944;2023-07-13T05:27:39;23.30;44.10
31129;DHT22;17777;48.770;8.944;2023-07-13T05:30:05;23.30;44.10
31129;DHT22;17777;48.770;8.944;2023-07-13T05:32:33;23.30;44.10
31129;DHT22;17777;48.770;8.944;2023-07-13T05:34:59;23.40;44.20
31129;DHT22;17777;48.770;8.944;2023-07-13T05:37:24;23.40;44.10
31129;DHT22;17777;48.770;8.944;2023-07-13T05:39:50;23.40;44.00
31129;DHT22;17777;48.770;8.944;2023-07-13T05:42:16;23.40;44.10
31129;DHT22;17777;48.770;8.944;2023-07-13T05:44:41;23.40;44.20
31129;DHT22;17777;48.770;8.944;2023-07-13T05:47:07;23.40;44.30
31129;DHT22;17777;48.770;8.944;2023-07-13T05:49:33;23.40;44.40
31129;DHT22;17777;48.770;8.944;2023-07-13T05:51:59;23.40;44.40
31129;DHT22;17777;48.770;8.944;2023-07-13T05:54:25;23.40;44.50
31129;DHT22;17777;48.770;8.944;2023-07-13T05:56:50;23.40;44.60
31129;DHT22;17777;48.770;8.944;2023-07-13T05:59:17;23.40;44.70
31129;DHT22;17777;48.770;8.944;2023-07-13T06:01:43;23.40;44.80
31129;DHT22;17777;48.770;8.944;2023-07-13T06:04:09;23.40;44.80
31129;DHT22;17777;48.770;8.944;2023-07-13T06:06:35;23.40;44.90
31129;DHT22;17777;48.770;8.944;2023-07-13T06:09:00;23.50;45.00
31129;DHT22;17777;48.770;8.944;2023-07-13T06:11:27;23.50;45.10
31129;DHT22;17777;48.770;8.944;2023-07-13T06:13:55;23.50;45.20
31129;DHT22;17777;48.770;8.944;2023-07-13T06:16:21;23.60;45.30
31129;DHT22;17777;48.770;8.944;2023-07-13T06:18:47;23.70;45.30
31129;DHT22;17777;48.770;8.944;2023-07-13T06:21:17;23.70;45.20
31129;DHT22;17777;48.770;8.944;2023-07-13T06:23:44;23.80;45.20
31129;DHT22;17777;48.770;8.944;2023-07-13T06:26:13;23.80;45.10
31129;DHT22;17777;48.770;8.944;2023-07-13T06:28:39;23.90;45.10
31129;DHT22;17777;48.770;8.944;2023-07-13T06:31:09;24.00;44.90
31129;DHT22;17777;48.770;8.944;2023-07-13T06:33:36;24.00;44.70
31129;DHT22;17777;48.770;8.944;2023-07-13T06:36:03;24.10;44.50
31129;DHT22;17777;48.770;8.944;2023-07-13T06:38:30;24.10;44.10
31129;DHT22;17777;48.770;8.944;2023-07-13T06:40:56;24.20;43.90
31129;DHT22;17777;48.770;8.944;2023-07-13T06:43:22;24.30;43.70
31129;DHT22;17777;48.770;8.944;2023-07-13T06:45:50;24.30;43.50
31129;DHT22;17777;48.770;8.944;2023-07-13T06:48:17;24.40;43.40
31129;DHT22;17777;48.770;8.944;2023-07-13T06:50:44;24.50;43.20
31129;DHT22;17777;48.770;8.944;2023-07-13T06:53:12;24.60;43.10
31129;DHT22;17777;48.770;8.944;2023-07-13T06:55:38;24.70;42.90
31129;DHT22;17777;48.770;8.944;2023-07-13T06:58:05;24.70;42.80
31129;DHT22;17777;48.770;8.944;2023-07-13T07:00:31;24.80;42.60
31129;DHT22;17777;48.770;8.944;2023-07-13T07:02:57;24.90;42.30
31129;DHT22;17777;48.770;8.944;2023-07-13T07:05:23;25.00;42.10
31129;DHT22;17777;48.770;8.944;2023-07-13T07:07:54;25.00;42.00
31129;DHT22;17777;48.770;8.944;2023-07-13T07:10:20;25.10;41.80
31129;DHT22;17777;48.770;8.944;2023-07-13T07:12:46;25.20;42.60
31129;DHT22;17777;48.770;8.944;2023-07-13T07:15:13;25.30;41.80
31129;DHT22;17777;48.770;8.944;2023-07-13T07:17:39;25.40;41.60
31129;DHT22;17777;48.770;8.944;2023-07-13T07:20:05;25.40;41.30
31129;DHT22;17777;48.770;8.944;2023-07-13T07:22:32;25.50;41.20
31129;DHT22;17777;48.770;8.944;2023-07-13T07:24:59;25.60;41.10
31129;DHT22;17777;48.770;8.944;2023-07-13T07:27:25;25.60;40.80
31129;DHT22;17777;48.770;8.944;2023-07-13T07:29:51;25.70;40.70
31129;DHT22;17777;48.770;8.944;2023-07-13T07:32:17;25.80;40.70
31129;DHT22;17777;48.770;8.944;2023-07-13T07:34:44;25.90;40.50
31129;DHT22;17777;48.770;8.944;2023-07-13T07:37:12;25.90;40.30
31129;DHT22;17777;48.770;8.944;2023-07-13T07:39:38;26.00;39.90
31129;DHT22;17777;48.770;8.944;2023-07-13T07:42:05;26.10;40.00
31129;DHT22;17777;48.770;8.944;2023-07-13T07:44:31;26.20;39.80
31129;DHT22;17777;48.770;8.944;2023-07-13T07:46:58;26.20;39.50
31129;DHT22;17777;48.770;8.944;2023-07-13T07:49:24;26.30;39.40
31129;DHT22;17777;48.770;8.944;2023-07-13T07:51:50;26.40;39.10
31129;DHT22;17777;48.770;8.944;2023-07-13T07:54:16;26.40;39.00
31129;DHT22;17777;48.770;8.944;2023-07-13T07:56:42;26.50;39.00
31129;DHT22;17777;48.770;8.944;2023-07-13T07:59:08;26.60;39.00
31129;DHT22;17777;48.770;8.944;2023-07-13T08:01:34;26.60;38.70
31129;DHT22;17777;48.770;8.944;2023-07-13T08:04:01;26.70;38.40
31129;DHT22;17777;48.770;8.944;2023-07-13T08:06:26;26.70;38.40
31129;DHT22;17777;48.770;8.944;2023-07-13T08:08:52;26.80;38.30
31129;DHT22;17777;48.770;8.944;2023-07-13T08:11:18;26.80;38.20
31129;DHT22;17777;48.770;8.944;2023-07-13T08:13:46;26.90;38.10
31129;DHT22;17777;48.770;8.944;2023-07-13T08:16:12;26.90;37.90
31129;DHT22;17777;48.770;8.944;2023-07-13T08:18:37;27.00;37.90
31129;DHT22;17777;48.770;8.944;2023-07-13T08:21:05;27.10;37.80
31129;DHT22;17777;48.770;8.944;2023-07-13T08:23:31;27.10;37.60
31129;DHT22;17777;48.770;8.944;2023-07-13T08:25:57;27.20;37.60
31129;DHT22;17777;48.770;8.944;2023-07-13T08:28:25;27.30;37.30
31129;DHT22;17777;48.770;8.944;2023-07-13T08:30:50;27.30;37.10
31129;DHT22;17777;48.770;8.944;2023-07-13T08:33:18;27.30;37.20
31129;DHT22;17777;48.770;8.944;2023-07-13T08:35:48;27.40;36.90
31129;DHT22;17777;48.770;8.944;2023-07-13T08:38:16;27.40;36.50
31129;DHT22;17777;48.770;8.944;2023-07-13T08:40:42;27.50;36.70
31129;DHT22;17777;48.770;8.944;2023-07-13T08:43:16;27.50;36.50
31129;DHT22;17777;48.770;8.944;2023-07-13T08:45:49;27.60;36.20
31129;DHT22;17777;48.770;8.944;2023-07-13T08:48:27;27.70;36.60
31129;DHT22;17777;48.770;8.944;2023-07-13T08:51:00;27.70;36.10
31129;DHT22;17777;48.770;8.944;2023-07-13T08:53:38;27.80;36.20
31129;DHT22;17777;48.770;8.944;2023-07-13T08:56:15;27.80;35.90
31129;DHT22;17777;48.770;8.944;2023-07-13T08:58:45;27.90;35.70
31129;DHT22;17777;48.770;8.944;2023-07-13T09:01:54;27.90;36.60
31129;DHT22;17777;48.770;8.944;2023-07-13T09:04:34;28.00;35.10
31129;DHT22;17777;48.770;8.944;2023-07-13T09:07:40;28.00;35.30
31129;DHT22;17777;48.770;8.944;2023-07-13T09:10:23;28.10;35.00
31129;DHT22;17777;48.770;8.944;2023-07-13T09:15:49;28.20;34.80
31129;DHT22;17777;48.770;8.944;2023-07-13T09:18:36;28.20;35.50
31129;DHT22;17777;48.770;8.944;2023-07-13T09:21:15;28.30;35.00
31129;DHT22;17777;48.770;8.944;2023-07-13T09:23:44;28.40;35.30
31129;DHT22;17777;48.770;8.944;2023-07-13T09:26:17;28.40;35.30
31129;DHT22;17777;48.770;8.944;2023-07-13T09:28:55;28.50;35.30
31129;DHT22;17777;48.770;8.944;2023-07-13T09:31:34;28.60;35.00
31129;DHT22;17777;48.770;8.944;2023-07-13T09:34:04;28.60;34.10
31129;DHT22;17777;48.770;8.944;2023-07-13T09:36:33;28.70;34.70
31129;DHT22;17777;48.770;8.944;2023-07-13T09:39:29;28.80;34.40
31129;DHT22;17777;48.770;8.944;2023-07-13T09:42:27;28.80;33.60
31129;DHT22;17777;48.770;8.944;2023-07-13T09:44:56;28.80;33.70
31129;DHT22;17777;48.770;8.944;2023-07-13T09:47:26;28.90;34.20
31129;DHT22;17777;48.770;8.944;2023-07-13T09:50:04;28.90;34.00
31129;DHT22;17777;48.770;8.944;2023-07-13T09:52:45;28.90;33.10
31129;DHT22;17777;48.770;8.944;2023-07-13T09:55:37;28.90;33.30
31129;DHT22;17777;48.770;8.944;2023-07-13T09:58:09;28.90;33.20
31129;DHT22;17777;48.770;8.944;2023-07-13T10:00:37;29.00;33.80
31129;DHT22;17777;48.770;8.944;2023-07-13T10:03:27;29.00;34.00
31129;DHT22;17777;48.770;8.944;2023-07-13T10:06:03;29.00;33.30
31129;DHT22;17777;48.770;8.944;2023-07-13T10:08:52;29.00;33.20
31129;DHT22;17777;48.770;8.944;2023-07-13T10:13:55;29.20;33.60
31129;DHT22;17777;48.770;8.944;2023-07-13T10:16:35;29.20;34.40
31129;DHT22;17777;48.770;8.944;2023-07-13T10:19:14;29.20;33.10
31129;DHT22;17777;48.770;8.944;2023-07-13T10:21:55;29.30;32.90
31129;DHT22;17777;48.770;8.944;2023-07-13T10:24:25;29.30;33.50
31129;DHT22;17777;48.770;8.944;2023-07-13T10:32:28;29.40;32.70
31129;DHT22;17777;48.770;8.944;2023-07-13T10:34:53;29.40;33.00
31129;DHT22;17777;48.770;8.944;2023-07-13T10:37:27;29.40;32.90
31129;DHT22;17777;48.770;8.944;2023-07-13T10:39:56;29.40;32.30
31129;DHT22;17777;48.770;8.944;2023-07-13T10:42:40;29.50;32.60
31129;DHT22;17777;48.770;8.944;2023-07-13T10:45:29;29.50;31.80
31129;DHT22;17777;48.770;8.944;2023-07-13T10:47:57;29.50;31.90
31129;DHT22;17777;48.770;8.944;2023-07-13T10:50:25;29.50;32.40
31129;DHT22;17777;48.770;8.944;2023-07-13T10:52:55;29.60;32.20
31129;DHT22;17777;48.770;8.944;2023-07-13T10:55:33;29.60;32.20
31129;DHT22;17777;48.770;8.944;2023-07-13T10:58:13;29.60;31.70
31129;DHT22;17777;48.770;8.944;2023-07-13T11:01:10;29.60;31.80
31129;DHT22;17777;48.770;8.944;2023-07-13T11:03:50;29.70;32.20
31129;DHT22;17777;48.770;8.944;2023-07-13T11:11:33;29.70;32.20
31129;DHT22;17777;48.770;8.944;2023-07-13T11:14:25;29.70;31.80
31129;DHT22;17777;48.770;8.944;2023-07-13T11:17:47;29.70;31.60
31129;DHT22;17777;48.770;8.944;2023-07-13T11:22:51;29.70;31.80
31129;DHT22;17777;48.770;8.944;2023-07-13T11:36:07;29.70;31.80
31129;DHT22;17777;48.770;8.944;2023-07-13T11:38:44;29.70;31.40
31129;DHT22;17777;48.770;8.944;2023-07-13T11:44:01;29.80;31.20
31129;DHT22;17777;48.770;8.944;2023-07-13T11:46:30;29.80;31.00
31129;DHT22;17777;48.770;8.944;2023-07-13T11:48:56;29.90;31.60
31129;DHT22;17777;48.770;8.944;2023-07-13T11:51:28;29.90;31.40
31129;DHT22;17777;48.770;8.944;2023-07-13T11:54:01;29.90;31.00
31129;DHT22;17777;48.770;8.944;2023-07-13T11:56:29;29.90;31.20
31129;DHT22;17777;48.770;8.944;2023-07-13T11:58:59;30.00;31.30
31129;DHT22;17777;48.770;8.944;2023-07-13T12:01:31;30.00;31.00
31129;DHT22;17777;48.770;8.944;2023-07-13T12:04:02;30.00;30.80
31129;DHT22;17777;48.770;8.944;2023-07-13T12:06:33;30.10;30.40
31129;DHT22;17777;48.770;8.944;2023-07-13T12:09:13;30.00;30.20
31129;DHT22;17777;48.770;8.944;2023-07-13T12:11:44;30.10;30.20
31129;DHT22;17777;48.770;8.944;2023-07-13T12:14:17;30.10;30.50
31129;DHT22;17777;48.770;8.944;2023-07-13T12:16:46;30.10;30.20
31129;DHT22;17777;48.770;8.944;2023-07-13T12:19:23;30.00;30.40
31129;DHT22;17777;48.770;8.944;2023-07-13T12:21:54;30.00;30.00
31129;DHT22;17777;48.770;8.944;2023-07-13T12:24:22;30.00;31.00
31129;DHT22;17777;48.770;8.944;2023-07-13T12:27:00;30.00;30.50
31129;DHT22;17777;48.770;8.944;2023-07-13T12:29:28;30.10;30.30
31129;DHT22;17777;48.770;8.944;2023-07-13T12:31:54;30.10;30.40
31129;DHT22;17777;48.770;8.944;2023-07-13T12:34:22;30.10;30.40
31129;DHT22;17777;48.770;8.944;2023-07-13T12:36:54;30.10;30.20
31129;DHT22;17777;48.770;8.944;2023-07-13T12:39:34;30.10;30.10
31129;DHT22;17777;48.770;8.944;2023-07-13T12:42:34;30.10;29.70
31129;DHT22;17777;48.770;8.944;2023-07-13T12:45:24;30.10;29.90
31129;DHT22;17777;48.770;8.944;2023-07-13T12:48:03;30.10;29.70
31129;DHT22;17777;48.770;8.944;2023-07-13T12:50:47;30.20;29.80
31129;DHT22;17777;48.770;8.944;2023-07-13T12:53:19;30.20;29.80
31129;DHT22;17777;48.770;8.944;2023-07-13T12:55:49;30.20;29.90
31129;DHT22;17777;48.770;8.944;2023-07-13T12:58:25;30.30;29.90
31129;DHT22;17777;48.770;8.944;2023-07-13T13:00:55;30.30;29.90
31129;DHT22;17777;48.770;8.944;2023-07-13T13:03:38;30.40;29.80
31129;DHT22;17777;48.770;8.944;2023-07-13T13:06:28;30.40;29.60
31129;DHT22;17777;48.770;8.944;2023-07-13T13:08:55;30.50;30.00
31129;DHT22;17777;48.770;8.944;2023-07-13T13:11:24;30.50;29.70
31129;DHT22;17777;48.770;8.944;2023-07-13T13:13:52;30.50;29.70
31129;DHT22;17777;48.770;8.944;2023-07-13T13:16:37;30.60;29.70
31129;DHT22;17777;48.770;8.944;2023-07-13T13:19:20;30.60;29.20
31129;DHT22;17777;48.770;8.944;2023-07-13T13:21:51;30.60;29.40
31129;DHT22;17777;48.770;8.944;2023-07-13T13:24:21;30.70;30.10
31129;DHT22;17777;48.770;8.944;2023-07-13T13:26:50;30.70;29.50
31129;DHT22;17777;48.770;8.944;2023-07-13T13:29:19;30.80;29.60
31129;DHT22;17777;48.770;8.944;2023-07-13T13:31:47;30.80;29.50
31129;DHT22;17777;48.770;8.944;2023-07-13T13:34:17;30.80;29.30
31129;DHT22;17777;48.770;8.944;2023-07-13T13:36:44;30.80;29.00
31129;DHT22;17777;48.770;8.944;2023-07-13T13:39:34;30.90;29.30
31129;DHT22;17777;48.770;8.944;2023-07-13T13:42:02;30.90;28.60
31129;DHT22;17777;48.770;8.944;2023-07-13T13:44:28;31.00;29.10
31129;DHT22;17777;48.770;8.944;2023-07-13T13:46:55;31.10;29.10
31129;DHT22;17777;48.770;8.944;2023-07-13T13:49:24;31.10;29.00
31129;DHT22;17777;48.770;8.944;2023-07-13T13:51:52;31.10;28.80
31129;DHT22;17777;48.770;8.944;2023-07-13T13:54:19;31.10;28.80
31129;DHT22;17777;48.770;8.944;2023-07-13T13:56:49;31.10;28.70
31129;DHT22;17777;48.770;8.944;2023-07-13T13:59:16;31.10;28.40
31129;DHT22;17777;48.770;8.944;2023-07-13T14:01:44;31.10;28.50
31129;DHT22;17777;48.770;8.944;2023-07-13T14:04:16;31.10;28.50
31129;DHT22;17777;48.770;8.944;2023-07-13T14:06:44;31.10;28.30
31129;DHT22;17777;48.770;8.944;2023-07-13T14:09:16;31.10;28.30
31129;DHT22;17777;48.770;8.944;2023-07-13T14:11:45;31.10;28.40
31129;DHT22;17777;48.770;8.944;2023-07-13T14:14:21;31.10;28.30
31129;DHT22;17777;48.770;8.944;2023-07-13T14:16:49;31.00;28.00
31129;DHT22;17777;48.770;8.944;2023-07-13T14:19:19;31.00;28.50
31129;DHT22;17777;48.770;8.944;2023-07-13T14:21:45;31.10;28.60
31129;DHT22;17777;48.770;8.944;2023-07-13T14:24:13;31.00;28.50
31129;DHT22;17777;48.770;8.944;2023-07-13T14:26:40;31.10;28.60
31129;DHT22;17777;48.770;8.944;2023-07-13T14:29:16;31.10;28.50
31129;DHT22;17777;48.770;8.944;2023-07-13T14:31:43;31.10;28.20
31129;DHT22;17777;48.770;8.944;2023-07-13T14:34:11;31.10;28.50
31129;DHT22;17777;48.770;8.944;2023-07-13T14:36:43;31.20;28.50
31129;DHT22;17777;48.770;8.944;2023-07-13T14:39:22;31.20;28.40
31129;DHT22;17777;48.770;8.944;2023-07-13T14:41:53;31.20;28.30
31129;DHT22;17777;48.770;8.944;2023-07-13T14:44:24;31.20;28.30
31129;DHT22;17777;48.770;8.944;2023-07-13T14:46:52;31.20;28.30
31129;DHT22;17777;48.770;8.944;2023-07-13T14:51:50;31.30;28.10
31129;DHT22;17777;48.770;8.944;2023-07-13T14:54:16;31.30;28.30
31129;DHT22;17777;48.770;8.944;2023-07-13T14:56:42;31.40;28.30
31129;DHT22;17777;48.770;8.944;2023-07-13T14:59:08;31.40;28.30
31129;DHT22;17777;48.770;8.944;2023-07-13T15:01:36;31.30;28.20
31129;DHT22;17777;48.770;8.944;2023-07-13T15:04:02;31.40;28.10
31129;DHT22;17777;48.770;8.944;2023-07-13T15:06:29;31.40;28.10
31129;DHT22;17777;48.770;8.944;2023-07-13T15:08:57;31.40;28.10
31129;DHT22;17777;48.770;8.944;2023-07-13T15:11:23;31.40;28.10
31129;DHT22;17777;48.770;8.944;2023-07-13T15:13:49;31.40;28.00
31129;DHT22;17777;48.770;8.944;2023-07-13T15:16:23;31.30;28.00
31129;DHT22;17777;48.770;8.944;2023-07-13T15:18:50;31.30;27.60
31129;DHT22;17777;48.770;8.944;2023-07-13T15:21:22;31.40;28.20
31129;DHT22;17777;48.770;8.944;2023-07-13T15:23:49;31.40;27.70
31129;DHT22;17777;48.770;8.944;2023-07-13T15:26:17;31.40;27.80
31129;DHT22;17777;48.770;8.944;2023-07-13T15:28:45;31.40;27.80
31129;DHT22;17777;48.770;8.944;2023-07-13T15:31:25;31.30;27.70
31129;DHT22;17777;48.770;8.944;2023-07-13T15:33:56;31.30;27.40
31129;DHT22;17777;48.770;8.944;2023-07-13T15:36:24;31.30;27.70
31129;DHT22;17777;48.770;8.944;2023-07-13T15:38:54;31.30;27.70
31129;DHT22;17777;48.770;8.944;2023-07-13T15:41:28;31.30;27.70
31129;DHT22;17777;48.770;8.944;2023-07-13T15:43:56;31.20;27.30
31129;DHT22;17777;48.770;8.944;2023-07-13T15:46:27;31.20;27.50
31129;DHT22;17777;48.770;8.944;2023-07-13T15:48:54;31.20;27.60
31129;DHT22;17777;48.770;8.944;2023-07-13T15:51:28;31.10;27.60
31129;DHT22;17777;48.770;8.944;2023-07-13T15:54:01;31.10;27.60
31129;DHT22;17777;48.770;8.944;2023-07-13T15:56:35;31.10;27.40
31129;DHT22;17777;48.770;8.944;2023-07-13T15:59:02;31.10;27.50
31129;DHT22;17777;48.770;8.944;2023-07-13T16:01:29;31.10;27.60
31129;DHT22;17777;48.770;8.944;2023-07-13T16:03:56;31.10;27.50
31129;DHT22;17777;48.770;8.944;2023-07-13T16:06:36;31.10;27.50
31129;DHT22;17777;48.770;8.944;2023-07-13T16:09:05;31.00;27.10
31129;DHT22;17777;48.770;8.944;2023-07-13T16:11:34;31.00;27.50
31129;DHT22;17777;48.770;8.944;2023-07-13T16:14:02;31.00;27.40
31129;DHT22;17777;48.770;8.944;2023-07-13T16:16:30;31.00;27.50
31129;DHT22;17777;48.770;8.944;2023-07-13T16:19:03;31.00;27.50
31129;DHT22;17777;48.770;8.944;2023-07-13T16:21:34;30.90;27.30
31129;DHT22;17777;48.770;8.944;2023-07-13T16:24:02;30.90;27.40